sensor_id;sensor_type;location;lat;lon;timestamp;P1;durP1;ratioP1;P2;durP2;ratioP2
62058;SDS011;48017;51.064;7.014;2022-10-30T00:00:09;8.80;;;3.95;;
62058;SDS011;48017;51.064;7.014;2022-10-30T00:02:35;7.65;;;4.28;;
62058;SDS011;48017;51.064;7.014;2022-10-30T00:05:00;10.02;;;3.63;;
62058;SDS011;48017;51.064;7.014;2022-10-30T00:07:25;6.43;;;3.53;;
62058;SDS011;48017;51.064;7.014;2022-10-30T00:09:51;8.52;;;3.63;;
62058;SDS011;48017;51.064;7.014;2022-10-30T00:12:16;8.55;;;4.03;;
62058;SDS011;48017;51.064;7.014;2022-10-30T00:14:41;7.07;;;3.40;;
62058;SDS011;48017;51.064;7.014;2022-10-30T00:17:07;8.57;;;3.92;;
62058;SDS011;48017;51.064;7.014;2022-10-30T00:19:32;8.05;;;3.70;;
62058;SDS011;48017;51.064;7.014;2022-10-30T00:21:57;9.65;;;3.53;;
62058;SDS011;48017;51.064;7.014;2022-10-30T00:24:23;7.72;;;3.70;;
62058;SDS011;48017;51.064;7.014;2022-10-30T00:26:48;7.32;;;4.68;;
62058;SDS011;48017;51.064;7.014;2022-10-30T00:29:14;11.32;;;4.35;;
62058;SDS011;48017;51.064;7.014;2022-10-30T00:31:39;8.95;;;4.18;;
62058;SDS011;48017;51.064;7.014;2022-10-30T00:34:05;10.50;;;4.40;;
62058;SDS011;48017;51.064;7.014;2022-10-30T00:36:30;8.23;;;3.92;;
62058;SDS011;48017;51.064;7.014;2022-10-30T00:38:56;6.70;;;3.00;;
62058;SDS011;48017;51.064;7.014;2022-10-30T00:41:22;7.35;;;3.35;;
62058;SDS011;48017;51.064;7.014;2022-10-30T00:43:48;8.77;;;3.35;;
62058;SDS011;48017;51.064;7.014;2022-10-30T00:46:33;10.23;;;4.68;;
62058;SDS011;48017;51.064;7.014;2022-10-30T00:51:27;6.30;;;3.13;;
62058;SDS011;48017;51.064;7.014;2022-10-30T00:56:21;7.30;;;3.10;;
62058;SDS011;48017;51.064;7.014;2022-10-30T00:58:52;6.10;;;2.90;;
62058;SDS011;48017;51.064;7.014;2022-10-30T01:01:23;11.25;;;3.50;;
62058;SDS011;48017;51.064;7.014;2022-10-30T01:03:52;8.35;;;3.55;;
62058;SDS011;48017;51.064;7.014;2022-10-30T01:06:21;9.05;;;3.22;;
62058;SDS011;48017;51.064;7.014;2022-10-30T01:08:47;9.40;;;4.85;;
62058;SDS011;48017;51.064;7.014;2022-10-30T01:11:14;8.43;;;4.00;;
62058;SDS011;48017;51.064;7.014;2022-10-30T01:13:40;7.75;;;3.45;;
62058;SDS011;48017;51.064;7.014;2022-10-30T01:21:39;8.73;;;3.20;;
62058;SDS011;48017;51.064;7.014;2022-10-30T01:30:02;5.07;;;3.00;;
62058;SDS011;48017;51.064;7.014;2022-10-30T01:35:39;7.90;;;3.65;;
62058;SDS011;48017;51.064;7.014;2022-10-30T01:38:16;7.30;;;3.80;;
62058;SDS011;48017;51.064;7.014;2022-10-30T01:40:47;8.02;;;3.45;;
62058;SDS011;48017;51.064;7.014;2022-10-30T01:43:13;7.30;;;4.05;;
62058;SDS011;48017;51.064;7.014;2022-10-30T01:59:35;5.88;;;3.75;;
62058;SDS011;48017;51.064;7.014;2022-10-30T02:02:11;7.47;;;3.72;;
62058;SDS011;48017;51.064;7.014;2022-10-30T02:04:37;7.93;;;4.15;;
62058;SDS011;48017;51.064;7.014;2022-10-30T02:07:03;8.18;;;3.30;;
62058;SDS011;48017;51.064;7.014;2022-10-30T02:09:28;5.32;;;3.33;;
62058;SDS011;48017;51.064;7.014;2022-10-30T02:11:55;9.20;;;3.90;;
62058;SDS011;48017;51.064;7.014;2022-10-30T02:14:22;7.72;;;3.75;;
62058;SDS011;48017;51.064;7.014;2022-10-30T02:16:51;6.68;;;3.13;;
62058;SDS011;48017;51.064;7.014;2022-10-30T02:19:20;8.35;;;3.38;;
62058;SDS011;48017;51.064;7.014;2022-10-30T02:21:46;5.15;;;3.03;;
62058;SDS011;48017;51.064;7.014;2022-10-30T02:24:12;4.28;;;2.67;;
62058;SDS011;48017;51.064;7.014;2022-10-30T02:26:37;6.20;;;3.22;;
62058;SDS011;48017;51.064;7.014;2022-10-30T02:29:03;6.75;;;3.38;;
62058;SDS011;48017;51.064;7.014;2022-10-30T02:31:28;8.50;;;3.08;;
62058;SDS011;48017;51.064;7.014;2022-10-30T02:33:54;5.88;;;2.90;;
62058;SDS011;48017;51.064;7.014;2022-10-30T02:36:19;5.85;;;2.60;;
62058;SDS011;48017;51.064;7.014;2022-10-30T02:38:44;4.65;;;2.75;;
62058;SDS011;48017;51.064;7.014;2022-10-30T02:41:10;6.00;;;2.92;;
62058;SDS011;48017;51.064;7.014;2022-10-30T02:43:36;6.97;;;2.80;;
62058;SDS011;48017;51.064;7.014;2022-10-30T02:46:01;5.25;;;2.92;;
62058;SDS011;48017;51.064;7.014;2022-10-30T02:48:26;7.22;;;3.03;;
62058;SDS011;48017;51.064;7.014;2022-10-30T02:50:57;6.30;;;3.00;;
62058;SDS011;48017;51.064;7.014;2022-10-30T02:53:24;8.95;;;2.70;;
62058;SDS011;48017;51.064;7.014;2022-10-30T02:55:49;6.93;;;2.55;;
62058;SDS011;48017;51.064;7.014;2022-10-30T02:58:14;9.00;;;3.22;;
62058;SDS011;48017;51.064;7.014;2022-10-30T03:00:40;6.82;;;3.13;;
62058;SDS011;48017;51.064;7.014;2022-10-30T03:03:05;6.93;;;2.72;;
62058;SDS011;48017;51.064;7.014;2022-10-30T03:05:30;11.38;;;3.42;;
62058;SDS011;48017;51.064;7.014;2022-10-30T03:07:56;5.10;;;3.00;;
62058;SDS011;48017;51.064;7.014;2022-10-30T03:10:21;8.85;;;3.40;;
62058;SDS011;48017;51.064;7.014;2022-10-30T03:12:47;8.73;;;2.83;;
62058;SDS011;48017;51.064;7.014;2022-10-30T03:15:12;6.50;;;3.28;;
62058;SDS011;48017;51.064;7.014;2022-10-30T03:17:37;7.40;;;3.10;;
62058;SDS011;48017;51.064;7.014;2022-10-30T03:20:03;6.00;;;2.90;;
62058;SDS011;48017;51.064;7.014;2022-10-30T03:22:28;4.10;;;2.65;;
62058;SDS011;48017;51.064;7.014;2022-10-30T03:24:54;6.18;;;2.97;;
62058;SDS011;48017;51.064;7.014;2022-10-30T03:27:19;4.43;;;2.88;;
62058;SDS011;48017;51.064;7.014;2022-10-30T03:29:44;6.07;;;3.10;;
62058;SDS011;48017;51.064;7.014;2022-10-30T03:32:10;5.72;;;2.97;;
62058;SDS011;48017;51.064;7.014;2022-10-30T03:34:36;7.88;;;2.95;;
62058;SDS011;48017;51.064;7.014;2022-10-30T03:37:01;6.40;;;2.95;;
62058;SDS011;48017;51.064;7.014;2022-10-30T03:39:27;6.20;;;3.15;;
62058;SDS011;48017;51.064;7.014;2022-10-30T03:41:52;5.10;;;2.67;;
62058;SDS011;48017;51.064;7.014;2022-10-30T03:44:18;5.47;;;2.97;;
62058;SDS011;48017;51.064;7.014;2022-10-30T03:46:43;11.73;;;3.60;;
62058;SDS011;48017;51.064;7.014;2022-10-30T03:49:08;6.53;;;2.97;;
62058;SDS011;48017;51.064;7.014;2022-10-30T03:51:34;5.93;;;3.03;;
62058;SDS011;48017;51.064;7.014;2022-10-30T03:53:59;8.40;;;3.22;;
62058;SDS011;48017;51.064;7.014;2022-10-30T03:56:24;8.60;;;3.03;;
62058;SDS011;48017;51.064;7.014;2022-10-30T03:58:50;7.75;;;3.38;;
62058;SDS011;48017;51.064;7.014;2022-10-30T04:01:15;6.95;;;3.38;;
62058;SDS011;48017;51.064;7.014;2022-10-30T04:03:41;6.15;;;3.10;;
62058;SDS011;48017;51.064;7.014;2022-10-30T04:06:06;8.77;;;3.38;;
62058;SDS011;48017;51.064;7.014;2022-10-30T04:08:31;6.13;;;3.00;;
62058;SDS011;48017;51.064;7.014;2022-10-30T04:10:57;5.63;;;3.10;;
62058;SDS011;48017;51.064;7.014;2022-10-30T04:13:22;7.07;;;3.58;;
62058;SDS011;48017;51.064;7.014;2022-10-30T04:15:48;6.93;;;3.30;;
62058;SDS011;48017;51.064;7.014;2022-10-30T04:18:14;6.47;;;3.13;;
62058;SDS011;48017;51.064;7.014;2022-10-30T04:20:40;8.07;;;3.30;;
62058;SDS011;48017;51.064;7.014;2022-10-30T04:23:07;7.25;;;3.45;;
62058;SDS011;48017;51.064;7.014;2022-10-30T04:25:37;12.63;;;3.97;;
62058;SDS011;48017;51.064;7.014;2022-10-30T04:28:03;7.47;;;3.50;;
62058;SDS011;48017;51.064;7.014;2022-10-30T04:30:28;8.95;;;3.90;;
62058;SDS011;48017;51.064;7.014;2022-10-30T04:32:59;13.13;;;5.95;;
62058;SDS011;48017;51.064;7.014;2022-10-30T04:35:26;7.88;;;4.13;;
62058;SDS011;48017;51.064;7.014;2022-10-30T04:37:57;6.25;;;3.70;;
62058;SDS011;48017;51.064;7.014;2022-10-30T04:40:24;7.85;;;3.40;;
62058;SDS011;48017;51.064;7.014;2022-10-30T04:42:52;10.48;;;5.25;;
62058;SDS011;48017;51.064;7.014;2022-10-30T04:45:17;14.00;;;4.85;;
62058;SDS011;48017;51.064;7.014;2022-10-30T04:47:43;24.30;;;9.30;;
62058;SDS011;48017;51.064;7.014;2022-10-30T04:50:09;8.00;;;4.38;;
62058;SDS011;48017;51.064;7.014;2022-10-30T04:52:35;6.32;;;3.10;;
62058;SDS011;48017;51.064;7.014;2022-10-30T04:55:00;9.60;;;3.40;;
62058;SDS011;48017;51.064;7.014;2022-10-30T04:57:26;6.40;;;3.15;;
62058;SDS011;48017;51.064;7.014;2022-10-30T04:59:51;9.23;;;3.67;;
62058;SDS011;48017;51.064;7.014;2022-10-30T05:02:16;8.75;;;3.60;;
62058;SDS011;48017;51.064;7.014;2022-10-30T05:04:45;7.38;;;3.72;;
62058;SDS011;48017;51.064;7.014;2022-10-30T05:07:10;8.00;;;3.90;;
62058;SDS011;48017;51.064;7.014;2022-10-30T05:09:37;8.03;;;3.63;;
62058;SDS011;48017;51.064;7.014;2022-10-30T05:12:03;5.32;;;3.20;;
62058;SDS011;48017;51.064;7.014;2022-10-30T05:14:29;8.05;;;3.72;;
62058;SDS011;48017;51.064;7.014;2022-10-30T05:16:56;7.60;;;3.33;;
62058;SDS011;48017;51.064;7.014;2022-10-30T05:19:21;5.50;;;3.13;;
62058;SDS011;48017;51.064;7.014;2022-10-30T05:21:47;7.47;;;3.15;;
62058;SDS011;48017;51.064;7.014;2022-10-30T05:24:12;10.48;;;3.80;;
62058;SDS011;48017;51.064;7.014;2022-10-30T05:26:38;8.90;;;3.42;;
62058;SDS011;48017;51.064;7.014;2022-10-30T05:29:03;9.02;;;3.85;;
62058;SDS011;48017;51.064;7.014;2022-10-30T05:31:28;7.75;;;3.60;;
62058;SDS011;48017;51.064;7.014;2022-10-30T05:33:54;5.57;;;3.10;;
62058;SDS011;48017;51.064;7.014;2022-10-30T05:36:19;7.47;;;3.25;;
62058;SDS011;48017;51.064;7.014;2022-10-30T05:38:44;8.07;;;3.80;;
62058;SDS011;48017;51.064;7.014;2022-10-30T05:41:10;6.40;;;3.15;;
62058;SDS011;48017;51.064;7.014;2022-10-30T05:43:36;6.50;;;3.33;;
62058;SDS011;48017;51.064;7.014;2022-10-30T05:46:02;6.95;;;3.28;;
62058;SDS011;48017;51.064;7.014;2022-10-30T05:48:27;5.40;;;3.45;;
62058;SDS011;48017;51.064;7.014;2022-10-30T05:50:54;6.32;;;3.15;;
62058;SDS011;48017;51.064;7.014;2022-10-30T05:53:20;6.57;;;3.17;;
62058;SDS011;48017;51.064;7.014;2022-10-30T05:55:45;13.23;;;3.53;;
62058;SDS011;48017;51.064;7.014;2022-10-30T05:58:10;6.90;;;2.85;;
62058;SDS011;48017;51.064;7.014;2022-10-30T06:00:36;6.50;;;3.40;;
62058;SDS011;48017;51.064;7.014;2022-10-30T06:03:04;6.40;;;3.40;;
62058;SDS011;48017;51.064;7.014;2022-10-30T06:05:31;10.52;;;3.47;;
62058;SDS011;48017;51.064;7.014;2022-10-30T06:07:58;6.35;;;3.72;;
62058;SDS011;48017;51.064;7.014;2022-10-30T06:10:24;7.75;;;3.28;;
62058;SDS011;48017;51.064;7.014;2022-10-30T06:12:56;7.00;;;3.97;;
62058;SDS011;48017;51.064;7.014;2022-10-30T06:15:23;4.72;;;3.10;;
62058;SDS011;48017;51.064;7.014;2022-10-30T06:17:49;7.78;;;3.60;;
62058;SDS011;48017;51.064;7.014;2022-10-30T06:20:15;7.72;;;3.22;;
62058;SDS011;48017;51.064;7.014;2022-10-30T06:22:51;5.60;;;3.22;;
62058;SDS011;48017;51.064;7.014;2022-10-30T06:25:21;10.05;;;3.67;;
62058;SDS011;48017;51.064;7.014;2022-10-30T06:27:46;5.13;;;3.42;;
62058;SDS011;48017;51.064;7.014;2022-10-30T06:30:11;7.00;;;3.10;;
62058;SDS011;48017;51.064;7.014;2022-10-30T06:32:37;7.32;;;3.20;;
62058;SDS011;48017;51.064;7.014;2022-10-30T06:35:02;8.18;;;3.42;;
62058;SDS011;48017;51.064;7.014;2022-10-30T06:37:28;12.77;;;3.30;;
62058;SDS011;48017;51.064;7.014;2022-10-30T06:39:54;5.40;;;3.25;;
62058;SDS011;48017;51.064;7.014;2022-10-30T06:42:19;6.70;;;3.35;;
62058;SDS011;48017;51.064;7.014;2022-10-30T06:44:45;6.35;;;3.05;;
62058;SDS011;48017;51.064;7.014;2022-10-30T06:47:10;8.60;;;3.72;;
62058;SDS011;48017;51.064;7.014;2022-10-30T06:49:35;5.70;;;3.22;;
62058;SDS011;48017;51.064;7.014;2022-10-30T06:52:01;7.82;;;3.58;;
62058;SDS011;48017;51.064;7.014;2022-10-30T06:54:26;6.03;;;3.10;;
62058;SDS011;48017;51.064;7.014;2022-10-30T06:56:51;7.63;;;3.20;;
62058;SDS011;48017;51.064;7.014;2022-10-30T06:59:17;6.28;;;3.25;;
62058;SDS011;48017;51.064;7.014;2022-10-30T07:01:42;11.95;;;3.80;;
62058;SDS011;48017;51.064;7.014;2022-10-30T07:04:08;5.90;;;3.30;;
62058;SDS011;48017;51.064;7.014;2022-10-30T07:06:33;7.50;;;3.30;;
62058;SDS011;48017;51.064;7.014;2022-10-30T07:08:59;8.43;;;3.13;;
62058;SDS011;48017;51.064;7.014;2022-10-30T07:11:24;9.70;;;4.15;;
62058;SDS011;48017;51.064;7.014;2022-10-30T07:13:49;7.13;;;3.85;;
62058;SDS011;48017;51.064;7.014;2022-10-30T07:16:15;7.20;;;3.42;;
62058;SDS011;48017;51.064;7.014;2022-10-30T07:18:40;6.65;;;3.55;;
62058;SDS011;48017;51.064;7.014;2022-10-30T07:21:06;7.45;;;3.40;;
62058;SDS011;48017;51.064;7.014;2022-10-30T07:23:31;7.80;;;3.45;;
62058;SDS011;48017;51.064;7.014;2022-10-30T07:25:57;7.53;;;3.55;;
62058;SDS011;48017;51.064;7.014;2022-10-30T07:28:23;8.02;;;3.90;;
62058;SDS011;48017;51.064;7.014;2022-10-30T07:30:48;12.38;;;3.15;;
62058;SDS011;48017;51.064;7.014;2022-10-30T07:33:13;5.68;;;3.33;;
62058;SDS011;48017;51.064;7.014;2022-10-30T07:35:39;6.55;;;3.40;;
62058;SDS011;48017;51.064;7.014;2022-10-30T07:38:05;7.32;;;3.38;;
62058;SDS011;48017;51.064;7.014;2022-10-30T07:40:41;9.05;;;3.55;;
62058;SDS011;48017;51.064;7.014;2022-10-30T07:43:07;5.38;;;3.10;;
62058;SDS011;48017;51.064;7.014;2022-10-30T07:45:37;6.00;;;3.35;;
62058;SDS011;48017;51.064;7.014;2022-10-30T07:48:03;7.15;;;3.63;;
62058;SDS011;48017;51.064;7.014;2022-10-30T07:50:28;9.05;;;3.20;;
62058;SDS011;48017;51.064;7.014;2022-10-30T07:52:54;5.93;;;3.08;;
62058;SDS011;48017;51.064;7.014;2022-10-30T07:55:19;6.22;;;2.85;;
62058;SDS011;48017;51.064;7.014;2022-10-30T07:57:44;6.97;;;3.40;;
62058;SDS011;48017;51.064;7.014;2022-10-30T08:00:11;5.13;;;3.13;;
62058;SDS011;48017;51.064;7.014;2022-10-30T08:02:38;5.13;;;3.38;;
62058;SDS011;48017;51.064;7.014;2022-10-30T08:05:04;9.15;;;3.60;;
62058;SDS011;48017;51.064;7.014;2022-10-30T08:07:30;5.10;;;2.92;;
62058;SDS011;48017;51.064;7.014;2022-10-30T08:09:57;5.93;;;3.17;;
62058;SDS011;48017;51.064;7.014;2022-10-30T08:12:23;8.93;;;3.50;;
62058;SDS011;48017;51.064;7.014;2022-10-30T08:14:50;7.93;;;3.28;;
62058;SDS011;48017;51.064;7.014;2022-10-30T08:17:16;5.30;;;3.30;;
62058;SDS011;48017;51.064;7.014;2022-10-30T08:19:41;7.13;;;3.50;;
62058;SDS011;48017;51.064;7.014;2022-10-30T08:22:07;6.07;;;3.15;;
62058;SDS011;48017;51.064;7.014;2022-10-30T08:24:34;5.65;;;3.20;;
62058;SDS011;48017;51.064;7.014;2022-10-30T08:26:59;6.68;;;3.40;;
62058;SDS011;48017;51.064;7.014;2022-10-30T08:29:24;5.75;;;2.75;;
62058;SDS011;48017;51.064;7.014;2022-10-30T08:31:50;7.43;;;2.80;;
62058;SDS011;48017;51.064;7.014;2022-10-30T08:34:15;6.47;;;3.17;;
62058;SDS011;48017;51.064;7.014;2022-10-30T08:36:41;5.97;;;2.85;;
62058;SDS011;48017;51.064;7.014;2022-10-30T08:39:07;8.70;;;3.22;;
62058;SDS011;48017;51.064;7.014;2022-10-30T08:41:33;4.82;;;2.70;;
62058;SDS011;48017;51.064;7.014;2022-10-30T08:43:58;7.20;;;2.80;;
62058;SDS011;48017;51.064;7.014;2022-10-30T08:46:24;5.75;;;2.95;;
62058;SDS011;48017;51.064;7.014;2022-10-30T08:48:49;6.78;;;3.00;;
62058;SDS011;48017;51.064;7.014;2022-10-30T08:51:14;8.98;;;3.10;;
62058;SDS011;48017;51.064;7.014;2022-10-30T08:53:40;5.50;;;2.83;;
62058;SDS011;48017;51.064;7.014;2022-10-30T08:56:05;10.00;;;2.83;;
62058;SDS011;48017;51.064;7.014;2022-10-30T08:58:31;6.95;;;2.60;;
62058;SDS011;48017;51.064;7.014;2022-10-30T09:00:56;7.00;;;2.72;;
62058;SDS011;48017;51.064;7.014;2022-10-30T09:03:21;8.05;;;3.20;;
62058;SDS011;48017;51.064;7.014;2022-10-30T09:05:47;5.65;;;2.80;;
62058;SDS011;48017;51.064;7.014;2022-10-30T09:08:13;8.90;;;2.97;;
62058;SDS011;48017;51.064;7.014;2022-10-30T09:10:38;10.85;;;3.05;;
62058;SDS011;48017;51.064;7.014;2022-10-30T09:13:03;8.73;;;3.05;;
62058;SDS011;48017;51.064;7.014;2022-10-30T09:15:29;8.02;;;2.97;;
62058;SDS011;48017;51.064;7.014;2022-10-30T09:17:58;7.15;;;2.80;;
62058;SDS011;48017;51.064;7.014;2022-10-30T09:20:25;6.57;;;2.88;;
62058;SDS011;48017;51.064;7.014;2022-10-30T09:22:51;6.38;;;2.60;;
62058;SDS011;48017;51.064;7.014;2022-10-30T09:25:16;8.82;;;3.45;;
62058;SDS011;48017;51.064;7.014;2022-10-30T09:27:42;9.05;;;3.22;;
62058;SDS011;48017;51.064;7.014;2022-10-30T09:30:08;8.10;;;2.70;;
62058;SDS011;48017;51.064;7.014;2022-10-30T09:32:34;5.68;;;2.60;;
62058;SDS011;48017;51.064;7.014;2022-10-30T09:34:59;5.65;;;3.03;;
62058;SDS011;48017;51.064;7.014;2022-10-30T09:37:24;7.90;;;3.00;;
62058;SDS011;48017;51.064;7.014;2022-10-30T09:39:51;11.52;;;3.10;;
62058;SDS011;48017;51.064;7.014;2022-10-30T09:45:04;6.85;;;3.17;;
62058;SDS011;48017;51.064;7.014;2022-10-30T09:53:13;6.07;;;3.20;;
62058;SDS011;48017;51.064;7.014;2022-10-30T10:01:07;6.40;;;2.78;;
62058;SDS011;48017;51.064;7.014;2022-10-30T10:03:55;7.07;;;2.80;;
62058;SDS011;48017;51.064;7.014;2022-10-30T10:06:31;6.15;;;2.70;;
62058;SDS011;48017;51.064;7.014;2022-10-30T10:09:01;6.68;;;2.65;;
62058;SDS011;48017;51.064;7.014;2022-10-30T10:11:34;6.47;;;2.83;;
62058;SDS011;48017;51.064;7.014;2022-10-30T10:16:41;7.80;;;2.53;;
62058;SDS011;48017;51.064;7.014;2022-10-30T10:19:14;8.85;;;2.90;;
62058;SDS011;48017;51.064;7.014;2022-10-30T10:22:00;7.68;;;2.83;;
62058;SDS011;48017;51.064;7.014;2022-10-30T10:40:37;8.95;;;2.60;;
62058;SDS011;48017;51.064;7.014;2022-10-30T10:43:17;6.83;;;3.10;;
62058;SDS011;48017;51.064;7.014;2022-10-30T10:46:20;5.20;;;2.60;;
62058;SDS011;48017;51.064;7.014;2022-10-30T10:49:26;7.85;;;2.95;;
62058;SDS011;48017;51.064;7.014;2022-10-30T10:52:17;7.53;;;2.78;;
62058;SDS011;48017;51.064;7.014;2022-10-30T10:54:52;4.20;;;2.60;;
62058;SDS011;48017;51.064;7.014;2022-10-30T10:57:28;5.20;;;2.75;;
62058;SDS011;48017;51.064;7.014;2022-10-30T11:02:34;6.38;;;2.65;;
62058;SDS011;48017;51.064;7.014;2022-10-30T11:08:05;5.50;;;2.40;;
62058;SDS011;48017;51.064;7.014;2022-10-30T11:10:35;5.78;;;2.30;;
62058;SDS011;48017;51.064;7.014;2022-10-30T11:13:00;4.97;;;2.80;;
62058;SDS011;48017;51.064;7.014;2022-10-30T11:18:04;4.88;;;2.20;;
62058;SDS011;48017;51.064;7.014;2022-10-30T11:20:36;5.05;;;2.58;;
62058;SDS011;48017;51.064;7.014;2022-10-30T11:25:57;7.45;;;2.50;;
62058;SDS011;48017;51.064;7.014;2022-10-30T11:28:30;8.13;;;2.25;;
62058;SDS011;48017;51.064;7.014;2022-10-30T11:31:15;6.95;;;3.47;;
62058;SDS011;48017;51.064;7.014;2022-10-30T11:33:45;10.68;;;2.78;;
62058;SDS011;48017;51.064;7.014;2022-10-30T11:36:13;6.35;;;2.80;;
62058;SDS011;48017;51.064;7.014;2022-10-30T11:38:40;4.68;;;2.58;;
62058;SDS011;48017;51.064;7.014;2022-10-30T11:41:05;6.15;;;2.40;;
62058;SDS011;48017;51.064;7.014;2022-10-30T11:43:30;4.85;;;2.67;;
62058;SDS011;48017;51.064;7.014;2022-10-30T11:45:56;6.85;;;2.45;;
62058;SDS011;48017;51.064;7.014;2022-10-30T11:48:23;6.68;;;2.65;;
62058;SDS011;48017;51.064;7.014;2022-10-30T11:50:58;8.38;;;2.50;;
62058;SDS011;48017;51.064;7.014;2022-10-30T11:53:34;5.28;;;2.15;;
62058;SDS011;48017;51.064;7.014;2022-10-30T11:56:10;9.50;;;2.53;;
62058;SDS011;48017;51.064;7.014;2022-10-30T11:58:41;3.88;;;2.22;;
62058;SDS011;48017;51.064;7.014;2022-10-30T12:03:47;7.28;;;2.42;;
62058;SDS011;48017;51.064;7.014;2022-10-30T12:06:26;5.68;;;2.55;;
62058;SDS011;48017;51.064;7.014;2022-10-30T12:09:03;5.78;;;2.30;;
62058;SDS011;48017;51.064;7.014;2022-10-30T12:11:37;5.82;;;2.28;;
62058;SDS011;48017;51.064;7.014;2022-10-30T12:14:04;7.43;;;2.13;;
62058;SDS011;48017;51.064;7.014;2022-10-30T12:16:30;6.10;;;2.60;;
62058;SDS011;48017;51.064;7.014;2022-10-30T12:19:04;5.50;;;2.50;;
62058;SDS011;48017;51.064;7.014;2022-10-30T12:21:36;4.32;;;2.03;;
62058;SDS011;48017;51.064;7.014;2022-10-30T12:24:05;8.95;;;2.70;;
62058;SDS011;48017;51.064;7.014;2022-10-30T12:26:36;4.93;;;2.28;;
62058;SDS011;48017;51.064;7.014;2022-10-30T12:29:06;5.27;;;2.20;;
62058;SDS011;48017;51.064;7.014;2022-10-30T12:31:45;5.55;;;2.40;;
62058;SDS011;48017;51.064;7.014;2022-10-30T12:34:39;7.30;;;2.67;;
62058;SDS011;48017;51.064;7.014;2022-10-30T12:42:40;6.50;;;2.20;;
62058;SDS011;48017;51.064;7.014;2022-10-30T12:47:54;6.80;;;2.58;;
62058;SDS011;48017;51.064;7.014;2022-10-30T12:50:26;7.25;;;2.47;;
62058;SDS011;48017;51.064;7.014;2022-10-30T12:56:16;5.35;;;2.08;;
62058;SDS011;48017;51.064;7.014;2022-10-30T12:58:47;12.40;;;2.38;;
62058;SDS011;48017;51.064;7.014;2022-10-30T13:01:31;4.72;;;2.10;;
62058;SDS011;48017;51.064;7.014;2022-10-30T13:04:21;5.03;;;2.40;;
62058;SDS011;48017;51.064;7.014;2022-10-30T13:06:51;7.82;;;2.60;;
62058;SDS011;48017;51.064;7.014;2022-10-30T13:09:41;8.38;;;2.15;;
62058;SDS011;48017;51.064;7.014;2022-10-30T13:12:16;6.90;;;2.63;;
62058;SDS011;48017;51.064;7.014;2022-10-30T13:14:49;4.65;;;2.30;;
62058;SDS011;48017;51.064;7.014;2022-10-30T13:17:19;8.93;;;2.67;;
62058;SDS011;48017;51.064;7.014;2022-10-30T13:19:45;11.27;;;2.70;;
62058;SDS011;48017;51.064;7.014;2022-10-30T13:22:17;6.47;;;2.50;;
62058;SDS011;48017;51.064;7.014;2022-10-30T13:30:11;6.32;;;2.20;;
62058;SDS011;48017;51.064;7.014;2022-10-30T13:51:51;7.13;;;1.85;;
62058;SDS011;48017;51.064;7.014;2022-10-30T13:54:30;9.88;;;2.15;;
62058;SDS011;48017;51.064;7.014;2022-10-30T13:57:07;4.57;;;2.10;;
62058;SDS011;48017;51.064;7.014;2022-10-30T14:08:02;3.75;;;1.85;;
62058;SDS011;48017;51.064;7.014;2022-10-30T14:10:47;5.95;;;2.30;;
62058;SDS011;48017;51.064;7.014;2022-10-30T14:13:26;3.70;;;2.00;;
62058;SDS011;48017;51.064;7.014;2022-10-30T14:16:10;5.18;;;1.95;;
62058;SDS011;48017;51.064;7.014;2022-10-30T14:19:05;6.25;;;2.30;;
62058;SDS011;48017;51.064;7.014;2022-10-30T14:26:49;5.32;;;2.00;;
62058;SDS011;48017;51.064;7.014;2022-10-30T14:34:42;10.18;;;2.22;;
62058;SDS011;48017;51.064;7.014;2022-10-30T14:37:10;4.88;;;1.92;;
62058;SDS011;48017;51.064;7.014;2022-10-30T14:39:46;6.65;;;1.88;;
62058;SDS011;48017;51.064;7.014;2022-10-30T14:42:22;4.15;;;2.10;;
62058;SDS011;48017;51.064;7.014;2022-10-30T14:55:25;6.28;;;2.33;;
62058;SDS011;48017;51.064;7.014;2022-10-30T15:00:36;5.90;;;2.42;;
62058;SDS011;48017;51.064;7.014;2022-10-30T15:06:02;4.55;;;1.92;;
62058;SDS011;48017;51.064;7.014;2022-10-30T15:14:07;8.10;;;2.05;;
62058;SDS011;48017;51.064;7.014;2022-10-30T15:16:49;10.43;;;2.30;;
62058;SDS011;48017;51.064;7.014;2022-10-30T15:19:18;4.32;;;1.83;;
62058;SDS011;48017;51.064;7.014;2022-10-30T15:21:51;4.78;;;1.83;;
62058;SDS011;48017;51.064;7.014;2022-10-30T15:24:20;6.18;;;2.15;;
62058;SDS011;48017;51.064;7.014;2022-10-30T15:26:54;7.85;;;2.40;;
62058;SDS011;48017;51.064;7.014;2022-10-30T15:29:26;4.97;;;1.88;;
62058;SDS011;48017;51.064;7.014;2022-10-30T15:31:55;6.88;;;2.03;;
62058;SDS011;48017;51.064;7.014;2022-10-30T15:34:39;4.55;;;1.92;;
62058;SDS011;48017;51.064;7.014;2022-10-30T15:37:15;9.27;;;1.90;;
62058;SDS011;48017;51.064;7.014;2022-10-30T15:39:40;4.78;;;2.03;;
62058;SDS011;48017;51.064;7.014;2022-10-30T15:42:07;4.07;;;2.10;;
62058;SDS011;48017;51.064;7.014;2022-10-30T15:44:34;6.00;;;2.17;;
62058;SDS011;48017;51.064;7.014;2022-10-30T15:47:02;7.60;;;2.08;;
62058;SDS011;48017;51.064;7.014;2022-10-30T15:49:30;6.80;;;1.95;;
62058;SDS011;48017;51.064;7.014;2022-10-30T15:51:57;4.63;;;1.70;;
62058;SDS011;48017;51.064;7.014;2022-10-30T15:54:24;4.63;;;1.90;;
62058;SDS011;48017;51.064;7.014;2022-10-30T15:56:56;5.38;;;2.10;;
62058;SDS011;48017;51.064;7.014;2022-10-30T15:59:23;4.55;;;2.13;;
62058;SDS011;48017;51.064;7.014;2022-10-30T16:01:52;4.05;;;2.05;;
62058;SDS011;48017;51.064;7.014;2022-10-30T16:04:23;4.50;;;1.77;;
62058;SDS011;48017;51.064;7.014;2022-10-30T16:06:51;3.63;;;1.80;;
62058;SDS011;48017;51.064;7.014;2022-10-30T16:09:16;8.07;;;2.30;;
62058;SDS011;48017;51.064;7.014;2022-10-30T16:11:42;4.43;;;2.30;;
62058;SDS011;48017;51.064;7.014;2022-10-30T16:14:11;5.35;;;2.10;;
62058;SDS011;48017;51.064;7.014;2022-10-30T16:16:40;6.43;;;2.42;;
62058;SDS011;48017;51.064;7.014;2022-10-30T16:19:10;4.38;;;1.85;;
62058;SDS011;48017;51.064;7.014;2022-10-30T16:21:47;5.88;;;2.22;;
62058;SDS011;48017;51.064;7.014;2022-10-30T16:24:13;5.45;;;2.30;;
62058;SDS011;48017;51.064;7.014;2022-10-30T16:26:40;7.65;;;2.88;;
62058;SDS011;48017;51.064;7.014;2022-10-30T16:31:37;3.92;;;2.00;;
62058;SDS011;48017;51.064;7.014;2022-10-30T16:34:03;6.78;;;2.40;;
62058;SDS011;48017;51.064;7.014;2022-10-30T16:36:36;5.63;;;2.45;;
62058;SDS011;48017;51.064;7.014;2022-10-30T16:39:03;10.50;;;2.45;;
62058;SDS011;48017;51.064;7.014;2022-10-30T16:41:29;5.38;;;2.28;;
62058;SDS011;48017;51.064;7.014;2022-10-30T16:44:38;4.63;;;2.37;;
62058;SDS011;48017;51.064;7.014;2022-10-30T16:46:54;5.60;;;2.30;;
62058;SDS011;48017;51.064;7.014;2022-10-30T16:49:26;5.60;;;2.70;;
62058;SDS011;48017;51.064;7.014;2022-10-30T16:51:55;5.10;;;2.17;;
62058;SDS011;48017;51.064;7.014;2022-10-30T16:54:25;5.55;;;2.05;;
62058;SDS011;48017;51.064;7.014;2022-10-30T16:56:54;5.97;;;2.35;;
62058;SDS011;48017;51.064;7.014;2022-10-30T16:59:29;4.07;;;2.05;;
62058;SDS011;48017;51.064;7.014;2022-10-30T17:01:59;10.48;;;2.80;;
62058;SDS011;48017;51.064;7.014;2022-10-30T17:04:30;4.43;;;2.08;;
62058;SDS011;48017;51.064;7.014;2022-10-30T17:07:04;5.05;;;2.33;;
62058;SDS011;48017;51.064;7.014;2022-10-30T17:09:38;4.20;;;2.53;;
62058;SDS011;48017;51.064;7.014;2022-10-30T17:12:11;5.95;;;2.55;;
62058;SDS011;48017;51.064;7.014;2022-10-30T17:14:46;4.82;;;2.30;;
62058;SDS011;48017;51.064;7.014;2022-10-30T17:17:32;4.85;;;2.40;;
62058;SDS011;48017;51.064;7.014;2022-10-30T17:20:00;5.38;;;2.60;;
62058;SDS011;48017;51.064;7.014;2022-10-30T17:22:25;7.78;;;3.22;;
62058;SDS011;48017;51.064;7.014;2022-10-30T17:24:51;4.10;;;2.33;;
62058;SDS011;48017;51.064;7.014;2022-10-30T17:27:28;6.55;;;2.85;;
62058;SDS011;48017;51.064;7.014;2022-10-30T17:30:37;5.15;;;2.85;;
62058;SDS011;48017;51.064;7.014;2022-10-30T17:36:02;5.65;;;3.22;;